sensor_id;sensor_type;location;lat;lon;timestamp;pressure;altitude;pressure_sealevel;temperature;humidity
17311;BME280;8773;43.300;0.394;2023-03-16T00:01:04;99484.78;;;10.38;66.78
17311;BME280;8773;43.300;0.394;2023-03-16T00:03:34;99485.25;;;10.33;67.10
17311;BME280;8773;43.300;0.394;2023-03-16T00:06:02;99482.91;;;10.30;66.93
17311;BME280;8773;43.300;0.394;2023-03-16T00:08:30;99482.06;;;10.22;67.85
17311;BME280;8773;43.300;0.394;2023-03-16T00:10:58;99466.22;;;10.28;67.55
17311;BME280;8773;43.300;0.394;2023-03-16T00:13:30;99469.56;;;10.30;67.81
17311;BME280;8773;43.300;0.394;2023-03-16T00:16:00;99466.69;;;10.24;67.21
17311;BME280;8773;43.300;0.394;2023-03-16T00:18:30;99461.03;;;10.19;67.47
17311;BME280;8773;43.300;0.394;2023-03-16T00:21:05;99459.88;;;10.21;67.83
17311;BME280;8773;43.300;0.394;2023-03-16T00:23:34;99452.16;;;10.10;67.10
17311;BME280;8773;43.300;0.394;2023-03-16T00:26:04;99448.03;;;9.90;68.60
17311;BME280;8773;43.300;0.394;2023-03-16T00:28:34;99449.72;;;9.91;67.95
17311;BME280;8773;43.300;0.394;2023-03-16T00:31:03;99447.03;;;9.91;68.01
17311;BME280;8773;43.300;0.394;2023-03-16T00:33:32;99448.34;;;9.87;68.39
17311;BME280;8773;43.300;0.394;2023-03-16T00:36:03;99436.63;;;9.80;68.40
17311;BME280;8773;43.300;0.394;2023-03-16T00:38:36;99440.41;;;9.69;68.35
17311;BME280;8773;43.300;0.394;2023-03-16T00:41:06;99433.78;;;9.73;68.47
17311;BME280;8773;43.300;0.394;2023-03-16T00:43:36;99434.19;;;9.60;68.85
17311;BME280;8773;43.300;0.394;2023-03-16T00:46:07;99444.53;;;9.63;68.45
17311;BME280;8773;43.300;0.394;2023-03-16T00:48:37;99441.19;;;9.61;68.85
17311;BME280;8773;43.300;0.394;2023-03-16T00:51:10;99440.34;;;9.61;68.67
17311;BME280;8773;43.300;0.394;2023-03-16T00:53:42;99429.69;;;9.61;68.67
17311;BME280;8773;43.300;0.394;2023-03-16T00:56:10;99426.34;;;9.59;68.34
17311;BME280;8773;43.300;0.394;2023-03-16T00:58:40;99429.78;;;9.51;68.56
17311;BME280;8773;43.300;0.394;2023-03-16T01:01:10;99425.59;;;9.49;68.49
17311;BME280;8773;43.300;0.394;2023-03-16T01:03:40;99433.34;;;9.60;68.74
17311;BME280;8773;43.300;0.394;2023-03-16T01:06:10;99423.31;;;9.54;68.50
17311;BME280;8773;43.300;0.394;2023-03-16T01:08:45;99425.28;;;9.52;68.32
17311;BME280;8773;43.300;0.394;2023-03-16T01:11:15;99426.75;;;9.46;68.95
17311;BME280;8773;43.300;0.394;2023-03-16T01:13:44;99410.75;;;9.46;68.71
17311;BME280;8773;43.300;0.394;2023-03-16T01:16:16;99413.06;;;9.41;68.79
17311;BME280;8773;43.300;0.394;2023-03-16T01:18:45;99416.03;;;9.38;69.30
17311;BME280;8773;43.300;0.394;2023-03-16T01:21:13;99417.38;;;9.34;68.60
17311;BME280;8773;43.300;0.394;2023-03-16T01:23:41;99408.69;;;9.32;68.60
17311;BME280;8773;43.300;0.394;2023-03-16T01:26:11;99409.53;;;9.32;68.49
17311;BME280;8773;43.300;0.394;2023-03-16T01:28:40;99405.59;;;9.19;68.95
17311;BME280;8773;43.300;0.394;2023-03-16T01:31:11;99409.47;;;9.06;69.57
17311;BME280;8773;43.300;0.394;2023-03-16T01:33:40;99398.00;;;9.06;69.58
17311;BME280;8773;43.300;0.394;2023-03-16T01:36:11;99395.56;;;9.13;69.25
17311;BME280;8773;43.300;0.394;2023-03-16T01:38:39;99393.25;;;9.18;68.75
17311;BME280;8773;43.300;0.394;2023-03-16T01:41:08;99396.06;;;9.16;68.93
17311;BME280;8773;43.300;0.394;2023-03-16T01:43:39;99391.75;;;9.15;68.85
17311;BME280;8773;43.300;0.394;2023-03-16T01:46:19;99399.66;;;9.07;69.39
17311;BME280;8773;43.300;0.394;2023-03-16T01:48:55;99387.97;;;9.00;69.34
17311;BME280;8773;43.300;0.394;2023-03-16T01:51:28;99384.41;;;8.91;69.43
17311;BME280;8773;43.300;0.394;2023-03-16T01:54:01;99383.97;;;8.78;69.82
17311;BME280;8773;43.300;0.394;2023-03-16T01:56:34;99379.94;;;8.74;69.41
17311;BME280;8773;43.300;0.394;2023-03-16T01:59:08;99370.56;;;8.70;70.05
17311;BME280;8773;43.300;0.394;2023-03-16T02:01:37;99370.34;;;8.63;70.04
17311;BME280;8773;43.300;0.394;2023-03-16T02:04:19;99368.06;;;8.68;69.50
17311;BME280;8773;43.300;0.394;2023-03-16T02:06:54;99368.22;;;8.67;69.65
17311;BME280;8773;43.300;0.394;2023-03-16T02:09:24;99367.38;;;8.66;69.67
17311;BME280;8773;43.300;0.394;2023-03-16T02:11:54;99366.94;;;8.71;69.70
17311;BME280;8773;43.300;0.394;2023-03-16T02:14:23;99371.25;;;8.72;69.38
17311;BME280;8773;43.300;0.394;2023-03-16T02:16:54;99360.75;;;8.70;69.42
17311;BME280;8773;43.300;0.394;2023-03-16T02:19:33;99354.91;;;8.67;69.40
17311;BME280;8773;43.300;0.394;2023-03-16T02:22:05;99340.91;;;8.65;69.50
17311;BME280;8773;43.300;0.394;2023-03-16T02:24:35;99337.88;;;8.60;69.72
17311;BME280;8773;43.300;0.394;2023-03-16T02:27:05;99346.94;;;8.49;70.52
17311;BME280;8773;43.300;0.394;2023-03-16T02:29:57;99340.16;;;8.55;69.93
17311;BME280;8773;43.300;0.394;2023-03-16T02:32:29;99335.69;;;8.55;70.07
17311;BME280;8773;43.300;0.394;2023-03-16T02:34:59;99337.50;;;8.55;69.73
17311;BME280;8773;43.300;0.394;2023-03-16T02:37:28;99333.13;;;8.46;70.30
17311;BME280;8773;43.300;0.394;2023-03-16T02:39:59;99338.63;;;8.52;69.67
17311;BME280;8773;43.300;0.394;2023-03-16T02:42:28;99327.41;;;8.40;69.78
17311;BME280;8773;43.300;0.394;2023-03-16T02:44:59;99336.97;;;8.33;69.82
17311;BME280;8773;43.300;0.394;2023-03-16T02:47:32;99339.84;;;7.67;72.67
17311;BME280;8773;43.300;0.394;2023-03-16T02:50:02;99333.38;;;7.80;71.93
17311;BME280;8773;43.300;0.394;2023-03-16T02:52:32;99323.53;;;7.90;71.65
17311;BME280;8773;43.300;0.394;2023-03-16T02:55:01;99324.75;;;7.95;71.27
17311;BME280;8773;43.300;0.394;2023-03-16T02:57:29;99321.34;;;8.03;70.70
17311;BME280;8773;43.300;0.394;2023-03-16T02:59:58;99316.84;;;7.86;71.29
17311;BME280;8773;43.300;0.394;2023-03-16T03:02:27;99311.22;;;7.89;71.49
17311;BME280;8773;43.300;0.394;2023-03-16T03:04:55;99314.38;;;7.74;71.33
17311;BME280;8773;43.300;0.394;2023-03-16T03:07:23;99303.66;;;7.66;71.58
17311;BME280;8773;43.300;0.394;2023-03-16T03:09:57;99308.81;;;7.68;71.55
17311;BME280;8773;43.300;0.394;2023-03-16T03:12:28;99306.50;;;7.83;71.53
17311;BME280;8773;43.300;0.394;2023-03-16T03:14:58;99300.19;;;7.84;71.04
17311;BME280;8773;43.300;0.394;2023-03-16T03:17:26;99297.78;;;7.90;70.78
17311;BME280;8773;43.300;0.394;2023-03-16T03:19:56;99294.84;;;7.93;70.84
17311;BME280;8773;43.300;0.394;2023-03-16T03:22:25;99294.53;;;7.96;70.41
17311;BME280;8773;43.300;0.394;2023-03-16T03:24:53;99290.44;;;8.02;70.27
17311;BME280;8773;43.300;0.394;2023-03-16T03:27:21;99286.47;;;7.88;70.89
17311;BME280;8773;43.300;0.394;2023-03-16T03:29:50;99290.09;;;7.87;70.29
17311;BME280;8773;43.300;0.394;2023-03-16T03:32:19;99283.69;;;7.62;71.12
17311;BME280;8773;43.300;0.394;2023-03-16T03:34:47;99283.09;;;7.41;72.27
17311;BME280;8773;43.300;0.394;2023-03-16T03:37:15;99282.25;;;7.40;72.03
17311;BME280;8773;43.300;0.394;2023-03-16T03:39:43;99285.47;;;7.44;71.29
17311;BME280;8773;43.300;0.394;2023-03-16T03:42:12;99279.84;;;7.47;71.16
17311;BME280;8773;43.300;0.394;2023-03-16T03:44:40;99282.03;;;7.24;71.47
17311;BME280;8773;43.300;0.394;2023-03-16T03:47:08;99278.00;;;7.20;72.65
17311;BME280;8773;43.300;0.394;2023-03-16T03:49:37;99279.94;;;7.28;71.83
17311;BME280;8773;43.300;0.394;2023-03-16T03:52:05;99277.81;;;7.31;71.86
17311;BME280;8773;43.300;0.394;2023-03-16T03:54:33;99278.47;;;7.43;71.63
17311;BME280;8773;43.300;0.394;2023-03-16T03:57:04;99275.41;;;7.38;71.25
17311;BME280;8773;43.300;0.394;2023-03-16T03:59:33;99278.19;;;7.46;71.74
17311;BME280;8773;43.300;0.394;2023-03-16T04:02:06;99275.63;;;7.54;70.89
17311;BME280;8773;43.300;0.394;2023-03-16T04:04:34;99274.25;;;7.50;71.68
17311;BME280;8773;43.300;0.394;2023-03-16T04:07:07;99259.97;;;7.51;71.54
17311;BME280;8773;43.300;0.394;2023-03-16T04:09:35;99271.06;;;7.64;70.67
17311;BME280;8773;43.300;0.394;2023-03-16T04:12:04;99266.31;;;7.68;70.22
17311;BME280;8773;43.300;0.394;2023-03-16T04:14:32;99272.44;;;7.68;70.36
17311;BME280;8773;43.300;0.394;2023-03-16T04:17:00;99270.22;;;7.64;70.00
17311;BME280;8773;43.300;0.394;2023-03-16T04:19:30;99257.03;;;7.54;70.09
17311;BME280;8773;43.300;0.394;2023-03-16T04:21:58;99259.19;;;7.41;70.90
17311;BME280;8773;43.300;0.394;2023-03-16T04:24:30;99251.06;;;7.42;71.04
17311;BME280;8773;43.300;0.394;2023-03-16T04:27:00;99254.28;;;7.46;70.44
17311;BME280;8773;43.300;0.394;2023-03-16T04:29:28;99243.06;;;7.52;70.05
17311;BME280;8773;43.300;0.394;2023-03-16T04:31:57;99234.00;;;7.45;71.05
17311;BME280;8773;43.300;0.394;2023-03-16T04:34:25;99245.75;;;7.42;70.87
17311;BME280;8773;43.300;0.394;2023-03-16T04:36:53;99255.53;;;7.15;71.83
17311;BME280;8773;43.300;0.394;2023-03-16T04:39:21;99245.41;;;7.28;70.47
17311;BME280;8773;43.300;0.394;2023-03-16T04:41:58;99242.31;;;7.32;70.09
17311;BME280;8773;43.300;0.394;2023-03-16T04:44:27;99240.59;;;7.41;69.91
17311;BME280;8773;43.300;0.394;2023-03-16T04:46:55;99243.28;;;7.31;70.21
17311;BME280;8773;43.300;0.394;2023-03-16T04:49:24;99243.84;;;7.07;70.34
17311;BME280;8773;43.300;0.394;2023-03-16T04:51:52;99232.53;;;7.05;71.16
17311;BME280;8773;43.300;0.394;2023-03-16T04:54:20;99231.72;;;6.95;70.67
17311;BME280;8773;43.300;0.394;2023-03-16T04:56:48;99228.19;;;7.04;70.33
17311;BME280;8773;43.300;0.394;2023-03-16T04:59:19;99231.94;;;7.12;69.92
17311;BME280;8773;43.300;0.394;2023-03-16T05:01:47;99226.28;;;7.24;69.60
17311;BME280;8773;43.300;0.394;2023-03-16T05:04:16;99222.75;;;7.33;70.19
17311;BME280;8773;43.300;0.394;2023-03-16T05:06:45;99223.97;;;7.39;69.38
17311;BME280;8773;43.300;0.394;2023-03-16T05:09:13;99217.00;;;7.38;68.89
17311;BME280;8773;43.300;0.394;2023-03-16T05:11:51;99225.06;;;7.46;68.36
17311;BME280;8773;43.300;0.394;2023-03-16T05:14:21;99224.31;;;7.54;68.22
17311;BME280;8773;43.300;0.394;2023-03-16T05:16:49;99224.06;;;7.47;67.88
17311;BME280;8773;43.300;0.394;2023-03-16T05:19:18;99213.25;;;7.31;67.61
17311;BME280;8773;43.300;0.394;2023-03-16T05:21:46;99221.25;;;6.94;69.67
17311;BME280;8773;43.300;0.394;2023-03-16T05:24:17;99214.63;;;7.07;68.47
17311;BME280;8773;43.300;0.394;2023-03-16T05:26:52;99215.06;;;7.03;68.69
17311;BME280;8773;43.300;0.394;2023-03-16T05:29:22;99217.25;;;7.17;69.24
17311;BME280;8773;43.300;0.394;2023-03-16T05:31:53;99211.56;;;7.30;69.01
17311;BME280;8773;43.300;0.394;2023-03-16T05:34:21;99211.81;;;7.36;68.63
17311;BME280;8773;43.300;0.394;2023-03-16T05:36:49;99203.72;;;7.38;67.49
17311;BME280;8773;43.300;0.394;2023-03-16T05:39:17;99202.03;;;7.37;67.83
17311;BME280;8773;43.300;0.394;2023-03-16T05:41:45;99198.53;;;7.36;67.71
17311;BME280;8773;43.300;0.394;2023-03-16T05:44:13;99204.16;;;7.33;68.50
17311;BME280;8773;43.300;0.394;2023-03-16T05:46:45;99203.63;;;7.30;68.28
17311;BME280;8773;43.300;0.394;2023-03-16T05:49:16;99198.34;;;7.20;69.02
17311;BME280;8773;43.300;0.394;2023-03-16T05:51:44;99193.34;;;7.17;68.10
17311;BME280;8773;43.300;0.394;2023-03-16T05:54:14;99203.50;;;7.22;67.71
17311;BME280;8773;43.300;0.394;2023-03-16T05:56:43;99197.91;;;7.25;67.50
17311;BME280;8773;43.300;0.394;2023-03-16T05:59:11;99195.03;;;7.18;68.54
17311;BME280;8773;43.300;0.394;2023-03-16T06:01:39;99187.94;;;7.09;68.57
17311;BME280;8773;43.300;0.394;2023-03-16T06:04:41;99187.50;;;7.14;68.18
17311;BME280;8773;43.300;0.394;2023-03-16T06:07:11;99193.22;;;7.19;68.68
17311;BME280;8773;43.300;0.394;2023-03-16T06:09:39;99182.63;;;7.09;68.41
17311;BME280;8773;43.300;0.394;2023-03-16T06:12:08;99170.34;;;7.08;68.59
17311;BME280;8773;43.300;0.394;2023-03-16T06:14:39;99164.09;;;6.99;68.90
17311;BME280;8773;43.300;0.394;2023-03-16T06:17:07;99178.31;;;7.08;68.08
17311;BME280;8773;43.300;0.394;2023-03-16T06:19:35;99171.63;;;7.04;67.89
17311;BME280;8773;43.300;0.394;2023-03-16T06:22:05;99162.44;;;6.98;68.35
17311;BME280;8773;43.300;0.394;2023-03-16T06:24:34;99164.38;;;6.96;68.24
17311;BME280;8773;43.300;0.394;2023-03-16T06:27:02;99161.63;;;6.88;69.17
17311;BME280;8773;43.300;0.394;2023-03-16T06:29:30;99161.09;;;6.85;67.86
17311;BME280;8773;43.300;0.394;2023-03-16T06:32:02;99166.75;;;6.99;67.75
17311;BME280;8773;43.300;0.394;2023-03-16T06:34:30;99156.69;;;6.75;68.31
17311;BME280;8773;43.300;0.394;2023-03-16T06:37:05;99162.91;;;6.47;69.77
17311;BME280;8773;43.300;0.394;2023-03-16T06:39:33;99152.50;;;6.73;68.95
17311;BME280;8773;43.300;0.394;2023-03-16T06:42:01;99160.50;;;6.91;68.41
17311;BME280;8773;43.300;0.394;2023-03-16T06:44:32;99160.84;;;7.05;67.50
17311;BME280;8773;43.300;0.394;2023-03-16T06:47:00;99154.16;;;6.74;68.20
17311;BME280;8773;43.300;0.394;2023-03-16T06:49:29;99153.91;;;6.67;68.75
17311;BME280;8773;43.300;0.394;2023-03-16T06:51:57;99151.19;;;6.77;68.41
17311;BME280;8773;43.300;0.394;2023-03-16T06:54:27;99149.75;;;6.92;67.18
17311;BME280;8773;43.300;0.394;2023-03-16T06:56:58;99152.91;;;7.05;67.37
17311;BME280;8773;43.300;0.394;2023-03-16T06:59:26;99145.63;;;7.25;65.78
17311;BME280;8773;43.300;0.394;2023-03-16T07:01:54;99147.09;;;7.37;65.67
17311;BME280;8773;43.300;0.394;2023-03-16T07:04:22;99134.50;;;7.39;65.55
17311;BME280;8773;43.300;0.394;2023-03-16T07:06:50;99134.31;;;7.51;64.57
17311;BME280;8773;43.300;0.394;2023-03-16T07:09:18;99133.53;;;7.76;64.45
17311;BME280;8773;43.300;0.394;2023-03-16T07:11:48;99120.38;;;7.92;63.38
17311;BME280;8773;43.300;0.394;2023-03-16T07:14:17;99115.50;;;8.05;63.24
17311;BME280;8773;43.300;0.394;2023-03-16T07:16:45;99122.53;;;8.32;62.61
17311;BME280;8773;43.300;0.394;2023-03-16T07:19:13;99122.94;;;8.46;62.30
17311;BME280;8773;43.300;0.394;2023-03-16T07:21:41;99114.03;;;8.63;62.14
17311;BME280;8773;43.300;0.394;2023-03-16T07:24:09;99105.47;;;8.77;60.83
17311;BME280;8773;43.300;0.394;2023-03-16T07:26:38;99114.56;;;9.08;60.86
17311;BME280;8773;43.300;0.394;2023-03-16T07:29:08;99113.00;;;9.48;59.30
17311;BME280;8773;43.300;0.394;2023-03-16T07:31:38;99112.88;;;9.90;57.74
17311;BME280;8773;43.300;0.394;2023-03-16T07:34:06;99103.97;;;10.47;56.43
17311;BME280;8773;43.300;0.394;2023-03-16T07:36:34;99100.47;;;10.93;55.73
17311;BME280;8773;43.300;0.394;2023-03-16T07:39:02;99091.63;;;11.24;54.65
17311;BME280;8773;43.300;0.394;2023-03-16T07:41:30;99084.91;;;11.59;51.37
17311;BME280;8773;43.300;0.394;2023-03-16T07:43:58;99078.78;;;11.73;53.29
17311;BME280;8773;43.300;0.394;2023-03-16T07:46:27;99082.94;;;12.13;52.15
17311;BME280;8773;43.300;0.394;2023-03-16T07:48:55;99083.59;;;12.15;50.46
17311;BME280;8773;43.300;0.394;2023-03-16T07:51:23;99081.75;;;11.55;51.95
17311;BME280;8773;43.300;0.394;2023-03-16T07:53:51;99079.16;;;11.47;52.97
17311;BME280;8773;43.300;0.394;2023-03-16T07:56:19;99074.88;;;11.61;52.67
17311;BME280;8773;43.300;0.394;2023-03-16T07:58:48;99070.66;;;11.66;51.82
17311;BME280;8773;43.300;0.394;2023-03-16T08:01:16;99062.97;;;11.86;52.61
17311;BME280;8773;43.300;0.394;2023-03-16T08:03:45;99063.88;;;11.79;52.39
17311;BME280;8773;43.300;0.394;2023-03-16T08:06:13;99060.25;;;11.94;52.28
17311;BME280;8773;43.300;0.394;2023-03-16T08:08:41;99064.00;;;12.00;52.32
17311;BME280;8773;43.300;0.394;2023-03-16T08:11:09;99073.72;;;12.16;52.40
17311;BME280;8773;43.300;0.394;2023-03-16T08:13:38;99062.91;;;11.94;52.00
17311;BME280;8773;43.300;0.394;2023-03-16T08:16:09;99067.63;;;12.07;51.81
17311;BME280;8773;43.300;0.394;2023-03-16T08:18:39;99075.16;;;11.89;51.34
17311;BME280;8773;43.300;0.394;2023-03-16T08:21:09;99060.09;;;12.25;51.97
17311;BME280;8773;43.300;0.394;2023-03-16T08:23:37;99059.09;;;12.56;51.11
17311;BME280;8773;43.300;0.394;2023-03-16T08:26:05;99065.09;;;12.72;51.29
17311;BME280;8773;43.300;0.394;2023-03-16T08:28:34;99051.69;;;12.87;49.09
17311;BME280;8773;43.300;0.394;2023-03-16T08:31:06;99056.25;;;12.72;48.37
17311;BME280;8773;43.300;0.394;2023-03-16T08:33:34;99055.09;;;12.96;48.43
17311;BME280;8773;43.300;0.394;2023-03-16T08:36:04;99043.84;;;13.22;48.14
17311;BME280;8773;43.300;0.394;2023-03-16T08:38:34;99058.91;;;13.44;48.41
17311;BME280;8773;43.300;0.394;2023-03-16T08:41:02;99052.59;;;13.66;47.83
17311;BME280;8773;43.300;0.394;2023-03-16T08:43:30;99055.09;;;13.96;47.33
17311;BME280;8773;43.300;0.394;2023-03-16T08:45:59;99058.75;;;14.16;46.34
17311;BME280;8773;43.300;0.394;2023-03-16T08:48:29;99046.09;;;14.38;47.82
17311;BME280;8773;43.300;0.394;2023-03-16T08:51:00;99053.16;;;14.46;47.23
17311;BME280;8773;43.300;0.394;2023-03-16T08:53:29;99045.34;;;14.51;47.41
17311;BME280;8773;43.300;0.394;2023-03-16T08:56:02;99049.50;;;14.60;47.62
17311;BME280;8773;43.300;0.394;2023-03-16T08:58:31;99053.69;;;14.69;47.50
17311;BME280;8773;43.300;0.394;2023-03-16T09:01:00;99052.94;;;14.75;47.98
17311;BME280;8773;43.300;0.394;2023-03-16T09:03:28;99058.38;;;14.88;45.96
17311;BME280;8773;43.300;0.394;2023-03-16T09:05:59;99054.94;;;15.14;45.99
17311;BME280;8773;43.300;0.394;2023-03-16T09:08:28;99053.56;;;15.31;44.76
17311;BME280;8773;43.300;0.394;2023-03-16T09:11:02;99055.66;;;15.43;45.97
17311;BME280;8773;43.300;0.394;2023-03-16T09:13:31;99055.25;;;15.59;44.51
17311;BME280;8773;43.300;0.394;2023-03-16T09:15:59;99034.16;;;15.69;43.96
17311;BME280;8773;43.300;0.394;2023-03-16T09:18:28;99048.69;;;15.81;43.19
17311;BME280;8773;43.300;0.394;2023-03-16T09:20:57;99042.47;;;15.94;42.08
17311;BME280;8773;43.300;0.394;2023-03-16T09:23:26;99045.56;;;16.04;41.76
17311;BME280;8773;43.300;0.394;2023-03-16T09:25:56;99051.16;;;16.22;40.95
17311;BME280;8773;43.300;0.394;2023-03-16T09:28:27;99036.19;;;16.39;40.70
17311;BME280;8773;43.300;0.394;2023-03-16T09:30:56;99040.94;;;16.51;40.78
17311;BME280;8773;43.300;0.394;2023-03-16T09:33:25;99036.16;;;16.59;40.33
17311;BME280;8773;43.300;0.394;2023-03-16T09:35:58;99037.56;;;16.75;38.70
17311;BME280;8773;43.300;0.394;2023-03-16T09:38:27;99029.66;;;16.87;39.04
17311;BME280;8773;43.300;0.394;2023-03-16T09:40:57;99026.47;;;17.03;38.70
17311;BME280;8773;43.300;0.394;2023-03-16T09:43:41;99018.97;;;17.12;37.99
17311;BME280;8773;43.300;0.394;2023-03-16T09:46:14;99025.13;;;17.19;37.75
17311;BME280;8773;43.300;0.394;2023-03-16T09:48:47;99026.72;;;17.33;37.74
17311;BME280;8773;43.300;0.394;2023-03-16T09:51:19;99029.56;;;17.45;37.70
17311;BME280;8773;43.300;0.394;2023-03-16T09:53:51;99025.47;;;17.67;37.88
17311;BME280;8773;43.300;0.394;2023-03-16T09:56:29;99018.09;;;17.81;37.97
17311;BME280;8773;43.300;0.394;2023-03-16T09:59:08;99023.84;;;17.91;37.64
17311;BME280;8773;43.300;0.394;2023-03-16T10:01:45;99014.44;;;18.00;37.67
17311;BME280;8773;43.300;0.394;2023-03-16T10:04:30;99017.19;;;18.12;36.97
17311;BME280;8773;43.300;0.394;2023-03-16T10:07:04;99009.88;;;18.19;35.70
17311;BME280;8773;43.300;0.394;2023-03-16T10:09:43;98998.84;;;18.20;35.62
17311;BME280;8773;43.300;0.394;2023-03-16T10:12:15;99011.88;;;18.48;35.43
17311;BME280;8773;43.300;0.394;2023-03-16T10:14:49;98999.47;;;18.59;36.45
17311;BME280;8773;43.300;0.394;2023-03-16T10:17:22;99002.88;;;18.73;34.95
17311;BME280;8773;43.300;0.394;2023-03-16T10:19:56;99007.53;;;18.84;34.89
17311;BME280;8773;43.300;0.394;2023-03-16T10:22:30;99002.50;;;18.99;35.61
17311;BME280;8773;43.300;0.394;2023-03-16T10:25:04;99001.06;;;19.15;35.35
17311;BME280;8773;43.300;0.394;2023-03-16T10:27:36;99000.22;;;19.32;34.34
17311;BME280;8773;43.300;0.394;2023-03-16T10:30:17;99004.06;;;19.66;33.56
17311;BME280;8773;43.300;0.394;2023-03-16T10:32:48;98991.25;;;19.74;33.07
17311;BME280;8773;43.300;0.394;2023-03-16T10:35:26;98991.25;;;19.85;32.69
17311;BME280;8773;43.300;0.394;2023-03-16T10:37:56;98996.81;;;20.02;31.53
17311;BME280;8773;43.300;0.394;2023-03-16T10:40:24;98992.47;;;20.24;32.29
17311;BME280;8773;43.300;0.394;2023-03-16T10:42:53;99003.28;;;20.48;31.60
17311;BME280;8773;43.300;0.394;2023-03-16T10:45:28;98986.31;;;20.52;30.93
17311;BME280;8773;43.300;0.394;2023-03-16T10:48:05;98997.63;;;20.61;30.22
17311;BME280;8773;43.300;0.394;2023-03-16T10:50:34;98990.72;;;20.70;31.05
17311;BME280;8773;43.300;0.394;2023-03-16T10:53:02;98993.41;;;20.82;30.94
17311;BME280;8773;43.300;0.394;2023-03-16T10:55:40;98992.34;;;20.94;31.50
17311;BME280;8773;43.300;0.394;2023-03-16T10:58:09;98990.41;;;21.07;30.45
17311;BME280;8773;43.300;0.394;2023-03-16T11:00:41;98984.00;;;21.13;31.03
17311;BME280;8773;43.300;0.394;2023-03-16T11:03:20;98984.09;;;21.18;31.36
17311;BME280;8773;43.300;0.394;2023-03-16T11:05:56;98991.88;;;21.26;31.87
17311;BME280;8773;43.300;0.394;2023-03-16T11:08:25;98987.53;;;21.42;31.42
17311;BME280;8773;43.300;0.394;2023-03-16T11:10:56;98972.41;;;21.46;30.28
17311;BME280;8773;43.300;0.394;2023-03-16T11:13:31;98981.84;;;21.88;29.77
17311;BME280;8773;43.300;0.394;2023-03-16T11:16:05;98977.03;;;22.12;29.40
17311;BME280;8773;43.300;0.394;2023-03-16T11:18:45;98967.53;;;22.31;27.88
17311;BME280;8773;43.300;0.394;2023-03-16T11:21:18;98970.53;;;22.52;25.40
17311;BME280;8773;43.300;0.394;2023-03-16T11:23:54;98968.31;;;22.71;24.82
17311;BME280;8773;43.300;0.394;2023-03-16T11:26:28;98973.16;;;22.90;24.38
17311;BME280;8773;43.300;0.394;2023-03-16T11:29:01;98974.31;;;22.94;25.81
17311;BME280;8773;43.300;0.394;2023-03-16T11:31:42;98968.50;;;23.08;24.10
17311;BME280;8773;43.300;0.394;2023-03-16T11:34:16;98973.28;;;23.01;22.11
17311;BME280;8773;43.300;0.394;2023-03-16T11:36:49;98964.25;;;23.17;23.52
17311;BME280;8773;43.300;0.394;2023-03-16T11:39:36;98958.31;;;23.25;22.08
17311;BME280;8773;43.300;0.394;2023-03-16T11:42:22;98965.72;;;23.29;20.60
17311;BME280;8773;43.300;0.394;2023-03-16T11:44:58;98958.16;;;23.69;21.05
17311;BME280;8773;43.300;0.394;2023-03-16T11:47:49;98965.44;;;23.90;20.50
17311;BME280;8773;43.300;0.394;2023-03-16T11:53:00;61455.69;;;-146.88;100.00
17311;BME280;8773;43.300;0.394;2023-03-16T11:55:38;61455.69;;;-146.88;100.00
17311;BME280;8773;43.300;0.394;2023-03-16T11:58:29;98953.00;;;24.46;21.02
17311;BME280;8773;43.300;0.394;2023-03-16T12:01:07;98952.75;;;24.53;21.47
17311;BME280;8773;43.300;0.394;2023-03-16T12:03:52;98951.06;;;24.42;20.02
17311;BME280;8773;43.300;0.394;2023-03-16T12:09:41;98945.84;;;25.08;21.76
17311;BME280;8773;43.300;0.394;2023-03-16T12:12:21;98948.91;;;25.21;21.56
17311;BME280;8773;43.300;0.394;2023-03-16T12:15:05;98947.56;;;25.34;21.92
17311;BME280;8773;43.300;0.394;2023-03-16T12:17:37;98938.28;;;25.35;21.45
17311;BME280;8773;43.300;0.394;2023-03-16T12:20:14;98932.78;;;25.30;20.81
17311;BME280;8773;43.300;0.394;2023-03-16T12:22:45;98933.91;;;25.34;22.06
17311;BME280;8773;43.300;0.394;2023-03-16T12:25:17;98940.16;;;25.50;21.61
17311;BME280;8773;43.300;0.394;2023-03-16T12:27:49;98941.28;;;25.39;19.85
17311;BME280;8773;43.300;0.394;2023-03-16T12:30:31;98940.56;;;24.81;19.23
17311;BME280;8773;43.300;0.394;2023-03-16T12:33:07;98932.69;;;25.00;20.33
17311;BME280;8773;43.300;0.394;2023-03-16T12:35:43;98931.59;;;24.85;20.39
17311;BME280;8773;43.300;0.394;2023-03-16T12:38:30;98935.75;;;25.13;21.13
17311;BME280;8773;43.300;0.394;2023-03-16T12:41:08;98934.97;;;25.23;19.38
17311;BME280;8773;43.300;0.394;2023-03-16T12:43:58;98930.59;;;25.22;19.86
17311;BME280;8773;43.300;0.394;2023-03-16T12:46:38;98927.31;;;25.25;21.26
17311;BME280;8773;43.300;0.394;2023-03-16T12:49:09;98924.56;;;25.40;19.72
17311;BME280;8773;43.300;0.394;2023-03-16T12:51:39;98916.66;;;25.18;18.21
17311;BME280;8773;43.300;0.394;2023-03-16T12:54:18;98924.31;;;25.16;18.90
17311;BME280;8773;43.300;0.394;2023-03-16T12:56:48;98924.84;;;25.13;18.59
17311;BME280;8773;43.300;0.394;2023-03-16T12:59:19;98919.56;;;24.24;19.25
17311;BME280;8773;43.300;0.394;2023-03-16T13:01:51;98920.41;;;24.29;20.02
17311;BME280;8773;43.300;0.394;2023-03-16T13:04:21;98912.63;;;24.58;21.18
17311;BME280;8773;43.300;0.394;2023-03-16T13:07:00;98905.88;;;24.71;20.06
17311;BME280;8773;43.300;0.394;2023-03-16T13:09:30;98904.56;;;24.94;19.53
17311;BME280;8773;43.300;0.394;2023-03-16T13:11:59;98895.81;;;25.02;18.12
17311;BME280;8773;43.300;0.394;2023-03-16T13:14:36;98897.78;;;25.07;20.29
17311;BME280;8773;43.300;0.394;2023-03-16T13:17:23;98882.16;;;24.87;20.44
17311;BME280;8773;43.300;0.394;2023-03-16T13:20:20;98879.75;;;25.06;21.34
17311;BME280;8773;43.300;0.394;2023-03-16T13:23:16;98876.47;;;25.44;21.58
17311;BME280;8773;43.300;0.394;2023-03-16T13:25:59;98871.03;;;25.14;22.39
17311;BME280;8773;43.300;0.394;2023-03-16T13:28:31;98863.91;;;25.18;22.06
17311;BME280;8773;43.300;0.394;2023-03-16T13:31:00;98873.75;;;25.19;22.29
17311;BME280;8773;43.300;0.394;2023-03-16T13:33:32;98865.69;;;24.61;22.03
17311;BME280;8773;43.300;0.394;2023-03-16T13:36:03;98859.72;;;24.65;22.14
17311;BME280;8773;43.300;0.394;2023-03-16T13:38:32;98862.41;;;24.54;21.81
17311;BME280;8773;43.300;0.394;2023-03-16T13:41:03;98864.22;;;24.28;21.82
17311;BME280;8773;43.300;0.394;2023-03-16T13:43:33;98857.94;;;24.28;22.72
17311;BME280;8773;43.300;0.394;2023-03-16T13:46:12;98844.06;;;23.82;23.90